Time;durP1;ratioP1;P1;durP2;ratioP2;P2;SDS_P1;SDS_P2;PMS_P1;PMS_P2;Temp;Humidity;BMP_temperature;BMP_pressure;BME280_temperature;BME280_humidity;BME280_pressure;Samples;Min_cycle;Max_cycle;Signal;HPM_P1;HPM_P2
2023/09/08 00:02:07;;;;;;;14.40;11.50;;;;;;;13.11;78.28;101009.66;133677;1301;22423;-74
2023/09/08 00:05:07;;;;;;;;;;;;;;;13.09;78.35;101011.42;133737;1301;22462;-74
2023/09/08 00:08:08;;;;;;;16.90;12.20;;;;;;;13.09;78.78;101008.73;133739;1301;23278;-74
2023/09/08 00:11:09;;;;;;;13.80;11.70;;;;;;;13.11;79.15;101005.83;133684;1301;23088;-74
2023/09/08 00:14:09;;;;;;;18.40;13.30;;;;;;;13.14;79.63;101005.04;133668;1301;22390;-74
2023/09/08 00:17:10;;;;;;;17.70;13.20;;;;;;;13.16;80.07;101003.41;133701;1301;22429;-74
2023/09/08 00:20:10;;;;;;;19.90;12.90;;;;;;;13.20;80.55;101006.13;133734;1298;22372;-74
2023/09/08 00:23:11;;;;;;;;;;;;;;;13.22;80.57;101003.09;133730;1301;22495;-75
2023/09/08 00:26:11;;;;;;;14.00;11.50;;;;;;;13.21;80.54;101000.56;133729;1302;23334;-74
2023/09/08 00:29:12;;;;;;;15.60;12.30;;;;;;;13.17;80.21;100997.98;133723;1301;22444;-74
2023/09/08 00:32:12;;;;;;;16.70;11.50;;;;;;;13.12;79.81;100991.35;133761;1302;22422;-74
2023/09/08 00:35:13;;;;;;;14.40;12.70;;;;;;;13.09;80.22;100992.38;133726;1302;22209;-75
2023/09/08 00:38:13;;;;;;;;;;;;;;;13.10;80.69;100990.02;133747;1301;23248;-74
2023/09/08 00:41:14;;;;;;;15.80;11.70;;;;;;;13.06;80.71;100986.31;133691;1301;22504;-74
2023/09/08 00:44:15;;;;;;;12.50;10.70;;;;;;;13.02;80.14;100984.23;133696;1301;22651;-74
2023/09/08 00:47:15;;;;;;;12.20;10.30;;;;;;;12.97;79.85;100984.77;133699;1293;22087;-74
2023/09/08 00:50:16;;;;;;;;;;;;;;;12.92;79.81;100985.16;133639;1301;22492;-74
2023/09/08 00:53:17;;;;;;;18.60;12.30;;;;;;;12.82;80.25;100982.05;133691;1301;22447;-74
2023/09/08 00:56:18;;;;;;;16.90;13.10;;;;;;;12.76;80.36;100984.36;133709;1297;22205;-74
2023/09/08 00:59:19;;;;;;;16.10;12.60;;;;;;;12.64;80.37;100985.91;133761;1301;22987;-75
2023/09/08 01:02:21;;;;;;;16.40;10.80;;;;;;;12.62;80.48;100983.00;133719;1301;22364;-74
2023/09/08 01:05:21;;;;;;;15.00;13.40;;;;;;;12.62;80.43;100985.83;133713;1302;22384;-74
2023/09/08 01:08:22;;;;;;;22.00;15.40;;;;;;;12.61;81.03;100987.17;133722;1298;22472;-74
2023/09/08 01:11:23;;;;;;;;;;;;;;;12.55;81.40;100983.42;133736;1302;22433;-74
2023/09/08 01:14:23;;;;;;;17.40;14.30;;;;;;;12.49;81.59;100979.13;133614;1302;22217;-74
2023/09/08 01:17:25;;;;;;;18.50;15.40;;;;;;;12.49;82.35;100977.34;133592;1301;22266;-74
2023/09/08 01:20:52;;;;;;;18.70;15.80;;;;;;;12.52;82.33;100977.02;133731;1301;23057;-74
2023/09/08 01:24:17;;;;;;;17.90;15.30;;;;;;;12.54;82.72;100970.27;133703;1301;22210;-74
2023/09/08 01:27:19;;;;;;;14.90;11.70;;;;;;;12.52;81.87;100968.11;133738;1300;22487;-74
2023/09/08 01:30:22;;;;;;;13.00;10.90;;;;;;;12.46;80.79;100964.04;133613;1301;22413;-74
2023/09/08 01:33:24;;;;;;;13.40;10.40;;;;;;;12.35;80.44;100965.08;133715;1301;23200;-74
2023/09/08 01:36:24;;;;;;;14.70;11.70;;;;;;;12.31;80.96;100961.46;133749;1301;23592;-74
2023/09/08 01:39:26;;;;;;;12.20;9.50;;;;;;;12.28;80.74;100962.51;133744;1300;23023;-74
2023/09/08 01:42:26;;;;;;;12.10;10.30;;;;;;;12.24;80.29;100965.35;133745;1301;22425;-74
2023/09/08 01:45:27;;;;;;;14.00;12.50;;;;;;;12.20;80.57;100967.21;133721;1301;22369;-74
2023/09/08 01:48:28;;;;;;;17.70;11.80;;;;;;;12.18;80.97;100965.80;133732;1301;22217;-75
2023/09/08 01:51:28;;;;;;;15.40;13.10;;;;;;;12.17;80.92;100963.27;133733;1301;23424;-74
2023/09/08 01:54:29;;;;;;;14.70;11.90;;;;;;;12.17;81.37;100963.81;133715;1301;22418;-75
2023/09/08 01:57:29;;;;;;;14.30;11.50;;;;;;;12.18;81.70;100963.31;133733;1301;23516;-75
2023/09/08 02:00:30;;;;;;;;;;;;;;;12.16;81.69;100961.23;133650;1302;22443;-74
2023/09/08 02:03:30;;;;;;;17.00;12.00;;;;;;;12.14;81.70;100966.52;133731;1301;22353;-74
2023/09/08 02:06:31;;;;;;;;;;;;;;;12.07;81.37;100965.48;133752;1295;22444;-74
2023/09/08 02:09:33;;;;;;;17.40;13.50;;;;;;;12.03;81.26;100968.36;133695;1301;23263;-74
2023/09/08 02:12:33;;;;;;;18.90;14.90;;;;;;;11.99;81.58;100967.56;133616;1299;22502;-74
2023/09/08 02:15:37;;;;;;;17.40;14.60;;;;;;;11.97;81.84;100966.66;133742;1300;23685;-74
2023/09/08 02:18:38;;;;;;;21.40;16.20;;;;;;;11.95;82.32;100964.55;133586;1301;22493;-74
2023/09/08 02:21:39;;;;;;;18.50;13.50;;;;;;;11.99;83.01;100960.13;133742;1300;23081;-75
2023/09/08 02:24:40;;;;;;;18.20;15.70;;;;;;;12.04;82.61;100958.90;133746;1301;22356;-75
2023/09/08 02:27:40;;;;;;;;;;;;;;;12.07;83.15;100961.55;133650;1302;22510;-74
2023/09/08 02:30:41;;;;;;;15.50;13.40;;;;;;;12.09;83.34;100956.34;133768;1301;22357;-74
2023/09/08 02:33:41;;;;;;;23.60;14.50;;;;;;;12.10;82.60;100957.17;133771;1300;22387;-74
2023/09/08 02:36:42;;;;;;;;;;;;;;;12.07;82.35;100953.80;133612;1305;22465;-74
2023/09/08 02:39:43;;;;;;;17.60;14.40;;;;;;;12.01;82.28;100957.20;133646;1301;22401;-74
2023/09/08 02:42:44;;;;;;;14.20;11.50;;;;;;;11.99;82.27;100950.35;133751;1300;22258;-74
2023/09/08 02:45:47;;;;;;;17.40;12.20;;;;;;;11.98;82.00;100948.98;133610;1305;22922;-75
2023/09/08 02:48:48;;;;;;;16.50;12.20;;;;;;;11.97;81.84;100947.33;133590;1294;22443;-74
2023/09/08 02:51:48;;;;;;;15.90;12.30;;;;;;;11.94;81.68;100945.96;133619;1301;22450;-74
2023/09/08 02:54:49;;;;;;;17.60;15.40;;;;;;;11.88;81.69;100946.34;133744;1301;22466;-74
2023/09/08 02:57:49;;;;;;;20.20;16.40;;;;;;;11.83;82.18;100938.60;133747;1301;22517;-74
2023/09/08 03:00:51;;;;;;;21.90;17.20;;;;;;;11.81;82.71;100942.17;133561;1301;22375;-74
2023/09/08 03:03:52;;;;;;;22.00;16.50;;;;;;;11.82;82.89;100939.29;133612;1301;22475;-75
2023/09/08 03:06:53;;;;;;;16.90;13.80;;;;;;;11.82;82.70;100942.25;133556;1295;22408;-74
2023/09/08 03:09:54;;;;;;;14.10;11.70;;;;;;;11.77;82.19;100939.75;133575;1301;22370;-74
2023/09/08 03:12:55;;;;;;;13.90;11.90;;;;;;;11.69;81.67;100943.58;133587;1301;22524;-75
2023/09/08 03:15:56;;;;;;;;;;;;;;;11.63;81.60;100946.27;133565;1300;22502;-74
2023/09/08 03:18:58;;;;;;;;;;;;;;;11.59;81.74;100943.89;133741;1300;22421;-74
2023/09/08 03:21:59;;;;;;;15.90;11.30;;;;;;;11.53;81.77;100947.49;133484;1301;142466;-74
2023/09/08 03:24:59;;;;;;;;;;;;;;;11.49;81.52;100951.11;133627;1300;22446;-74
2023/09/08 03:28:00;;;;;;;19.90;15.00;;;;;;;11.41;82.01;100949.73;133701;1301;22403;-74
2023/09/08 03:31:01;;;;;;;14.70;11.70;;;;;;;11.37;82.42;100951.73;133744;1301;22421;-74
2023/09/08 03:34:03;;;;;;;16.80;13.80;;;;;;;11.33;82.11;100951.66;133606;1301;22333;-74
2023/09/08 03:37:04;;;;;;;13.80;11.50;;;;;;;11.29;82.29;100947.41;133748;1300;22281;-75
2023/09/08 03:40:06;;;;;;;13.70;12.10;;;;;;;11.24;81.99;100949.83;133731;1301;23409;-74
2023/09/08 03:43:07;;;;;;;13.50;10.90;;;;;;;11.18;81.98;100947.87;133572;1301;23037;-74
2023/09/08 03:46:08;;;;;;;13.10;11.80;;;;;;;11.13;81.86;100945.38;133748;1300;22342;-74
2023/09/08 03:49:08;;;;;;;16.60;14.80;;;;;;;11.11;82.15;100944.85;133717;1300;22475;-75
2023/09/08 03:52:09;;;;;;;;;;;;;;;11.11;82.76;100944.61;133718;1292;22447;-74
2023/09/08 03:55:09;;;;;;;14.80;13.20;;;;;;;11.06;82.87;100946.84;133637;1302;22383;-75
2023/09/08 03:58:11;;;;;;;19.60;14.60;;;;;;;11.02;82.85;100948.77;133734;1300;22199;-74
2023/09/08 04:01:11;;;;;;;16.00;14.30;;;;;;;10.98;83.33;100944.89;133551;1301;22459;-74
2023/09/08 04:04:12;;;;;;;13.60;12.20;;;;;;;10.94;83.29;100941.96;133715;1301;22358;-74
2023/09/08 04:07:13;;;;;;;;;;;;;;;10.91;82.81;100940.48;133749;1301;22463;-74
2023/09/08 04:10:14;;;;;;;17.10;14.00;;;;;;;10.91;83.12;100946.27;133700;1301;22437;-74
2023/09/08 04:13:14;;;;;;;18.40;14.70;;;;;;;10.89;83.37;100949.90;133613;1301;22312;-74
2023/09/08 04:16:15;;;;;;;18.40;14.20;;;;;;;10.87;83.38;100949.23;133658;1302;22500;-75
2023/09/08 04:19:16;;;;;;;15.10;12.80;;;;;;;10.85;83.14;100950.16;133754;1298;22326;-74
2023/09/08 04:22:16;;;;;;;14.30;12.20;;;;;;;10.78;83.13;100951.46;133755;1301;22270;-75
2023/09/08 04:25:17;;;;;;;17.30;14.20;;;;;;;10.74;82.93;100946.55;133759;1301;22346;-74
2023/09/08 04:28:17;;;;;;;17.00;12.90;;;;;;;10.71;83.20;100947.40;133747;1300;22457;-74
2023/09/08 04:31:19;;;;;;;16.30;14.20;;;;;;;10.66;83.07;100946.19;133616;1301;22369;-74
2023/09/08 04:34:20;;;;;;;15.40;12.50;;;;;;;10.69;83.12;100951.10;133627;1300;22306;-74
2023/09/08 04:37:21;;;;;;;;;;;;;;;10.68;82.96;100950.13;133563;1301;22498;-74
2023/09/08 04:40:21;;;;;;;15.50;12.30;;;;;;;10.68;82.95;100953.14;133735;1301;22488;-71
2023/09/08 04:43:22;;;;;;;19.30;16.70;;;;;;;10.65;83.19;100944.41;133847;1301;22444;-73
2023/09/08 04:46:22;;;;;;;15.80;12.50;;;;;;;10.62;83.70;100945.88;133630;1301;23250;-72
2023/09/08 04:49:23;;;;;;;15.20;12.20;;;;;;;10.65;83.58;100944.38;133649;1302;22902;-72
2023/09/08 04:52:25;;;;;;;18.70;14.20;;;;;;;10.70;83.61;100946.20;133597;1302;22481;-71
2023/09/08 04:55:26;;;;;;;21.00;17.30;;;;;;;10.76;84.09;100945.94;133653;1301;22618;-73
2023/09/08 04:58:27;;;;;;;22.30;18.60;;;;;;;10.82;84.87;100942.58;133722;1302;22457;-73
2023/09/08 05:01:29;;;;;;;24.80;19.70;;;;;;;10.91;85.76;100944.05;133752;1301;23264;-73
2023/09/08 05:04:30;;;;;;;22.70;17.80;;;;;;;11.07;86.23;100939.30;133239;1301;23139;-73
2023/09/08 05:11:25;;;;;;;22.20;19.50;;;;;;;11.48;86.75;100937.36;133688;1300;22348;-73
2023/09/08 05:14:29;;;;;;;22.80;20.00;;;;;;;11.96;87.63;100933.23;133520;1301;22220;-73
2023/09/08 05:17:30;;;;;;;18.20;14.60;;;;;;;12.51;87.45;100935.84;133708;1301;22456;-73
2023/09/08 05:20:31;;;;;;;17.40;13.50;;;;;;;13.07;86.48;100935.55;133708;1300;23172;-73
2023/09/08 05:23:32;;;;;;;16.00;12.80;;;;;;;13.67;85.94;100934.37;133641;1301;22435;-73
2023/09/08 05:26:36;;;;;;;17.10;14.70;;;;;;;14.27;85.56;100936.05;133540;1301;22227;-73
2023/09/08 05:29:37;;;;;;;16.90;13.20;;;;;;;14.92;85.53;100939.23;133623;1300;22533;-72
2023/09/08 05:32:40;;;;;;;;;;;;;;;15.54;84.58;100937.27;133760;1301;22469;-73
2023/09/08 05:35:42;;;;;;;20.10;13.80;;;;;;;16.09;83.40;100934.19;133696;1302;22413;-73
2023/09/08 05:38:43;;;;;;;20.30;13.60;;;;;;;16.65;83.35;100933.42;133505;1302;22400;-73
2023/09/08 05:41:49;;;;;;;15.30;12.80;;;;;;;17.23;82.71;100933.95;133726;1300;22222;-73
2023/09/08 05:44:54;;;;;;;15.00;12.90;;;;;;;17.75;81.85;100931.54;133670;1301;22369;-73
2023/09/08 05:47:55;;;;;;;16.00;13.00;;;;;;;18.26;80.86;100933.98;133596;1301;22626;-73
2023/09/08 05:51:02;;;;;;;18.20;13.80;;;;;;;18.65;79.93;100935.30;133599;1300;22376;-77
2023/09/08 05:54:03;;;;;;;16.10;12.80;;;;;;;19.06;78.59;100937.34;133719;1301;22456;-74
2023/09/08 05:57:03;;;;;;;16.30;11.70;;;;;;;19.33;77.66;100937.28;133611;1300;23353;-73
2023/09/08 06:00:05;;;;;;;16.70;12.40;;;;;;;19.53;76.63;100937.88;133580;1301;22408;-72
2023/09/08 06:03:13;;;;;;;16.90;12.30;;;;;;;19.72;75.68;100940.90;133661;1301;22350;-72
2023/09/08 06:06:14;;;;;;;14.10;11.40;;;;;;;19.84;74.94;100941.05;133600;1301;22237;-78
2023/09/08 06:09:18;;;;;;;14.30;11.20;;;;;;;19.96;74.38;100943.80;133608;1301;22465;-78
2023/09/08 06:12:18;;;;;;;14.10;10.90;;;;;;;20.02;73.25;100939.48;133675;1301;22343;-77
2023/09/08 06:15:19;;;;;;;13.60;10.80;;;;;;;20.05;73.09;100939.98;133718;1301;22976;-77
2023/09/08 06:18:19;;;;;;;14.60;11.00;;;;;;;20.27;73.00;100935.84;133631;1301;22354;-78
2023/09/08 06:21:21;;;;;;;13.00;11.40;;;;;;;20.57;72.53;100930.47;133616;1300;22377;-77
2023/09/08 06:24:24;;;;;;;12.50;9.40;;;;;;;20.87;71.99;100928.39;133721;1301;22418;-78
2023/09/08 06:27:28;;;;;;;18.00;10.70;;;;;;;21.06;71.07;100925.02;133603;1295;22845;-77
2023/09/08 06:30:31;;;;;;;15.40;9.20;;;;;;;21.26;70.68;100927.73;133646;1301;22309;-78
2023/09/08 06:33:31;;;;;;;12.60;9.90;;;;;;;21.61;69.99;100929.80;133544;1301;22241;-78
2023/09/08 06:36:32;;;;;;;13.90;10.70;;;;;;;21.64;68.44;100928.31;133733;1301;22350;-80
2023/09/08 06:39:36;;;;;;;13.40;9.30;;;;;;;21.63;68.56;100928.55;133628;1301;22350;-77
2023/09/08 06:42:37;;;;;;;12.40;10.20;;;;;;;21.68;68.08;100924.13;133634;1301;23179;-80
2023/09/08 06:45:52;;;;;;;11.90;9.40;;;;;;;21.81;67.63;100922.89;133646;1301;22572;-79
2023/09/08 06:48:54;;;;;;;13.50;9.70;;;;;;;22.06;67.51;100924.24;133667;1301;22611;-77
2023/09/08 06:51:55;;;;;;;12.50;9.30;;;;;;;22.40;66.72;100929.52;133609;1301;22265;-77
2023/09/08 06:55:01;;;;;;;18.40;11.40;;;;;;;22.37;65.64;100931.77;133607;1301;22246;-77
2023/09/08 06:58:02;;;;;;;13.90;10.60;;;;;;;22.54;65.95;100934.31;133599;1302;22387;-78
2023/09/08 07:01:06;;;;;;;13.40;9.90;;;;;;;22.85;64.74;100930.81;133622;1302;22485;-77
2023/09/08 07:04:07;;;;;;;15.40;10.30;;;;;;;22.96;64.06;100933.69;133738;1301;22435;-78
2023/09/08 07:07:07;;;;;;;15.10;10.40;;;;;;;22.96;62.75;100928.70;133692;1301;22332;-77
2023/09/08 07:10:10;;;;;;;14.40;10.40;;;;;;;22.89;62.09;100927.51;133609;1301;22550;-78
2023/09/08 07:13:10;;;;;;;14.20;10.90;;;;;;;22.90;62.67;100927.05;133614;1301;22454;-77
2023/09/08 07:16:12;;;;;;;17.00;10.00;;;;;;;23.21;62.89;100925.42;133578;1301;22277;-77
2023/09/08 07:19:12;;;;;;;14.80;10.00;;;;;;;23.41;61.85;100928.64;133560;1301;22491;-77
2023/09/08 07:22:17;;;;;;;13.60;10.20;;;;;;;23.57;61.83;100929.38;133597;1301;22371;-78
2023/09/08 07:25:17;;;;;;;13.90;10.10;;;;;;;23.67;60.77;100934.52;133586;1301;22958;-77
2023/09/08 07:28:19;;;;;;;13.10;9.90;;;;;;;23.57;60.14;100933.92;133535;1301;22409;-80
2023/09/08 07:31:19;;;;;;;11.60;10.40;;;;;;;23.59;60.19;100935.34;133683;1300;23054;-77
2023/09/08 07:34:21;;;;;;;32.60;23.70;;;;;;;23.74;59.92;100934.04;133515;1295;22552;-77
2023/09/08 07:37:22;;;;;;;20.00;11.70;;;;;;;23.91;59.76;100935.26;133701;1301;23038;-77
2023/09/08 07:40:26;;;;;;;12.30;9.00;;;;;;;23.95;58.93;100935.02;133588;1300;22291;-78
2023/09/08 07:43:27;;;;;;;12.30;9.30;;;;;;;23.69;58.92;100936.55;133645;1301;22486;-77
2023/09/08 07:46:27;;;;;;;13.50;9.90;;;;;;;23.68;59.12;100938.00;133599;1301;22187;-77
2023/09/08 07:49:33;;;;;;;15.80;9.50;;;;;;;23.82;59.07;100943.20;133709;1301;22756;-78
2023/09/08 07:52:34;;;;;;;11.10;9.10;;;;;;;23.82;58.36;100944.52;133695;1300;22476;-77
2023/09/08 07:55:34;;;;;;;17.40;9.00;;;;;;;23.64;58.66;100943.42;133713;1300;22667;-77
2023/09/08 07:58:36;;;;;;;14.80;9.70;;;;;;;23.91;59.39;100938.13;133764;1301;22739;-79
2023/09/08 08:01:39;;;;;;;14.40;9.60;;;;;;;24.37;58.78;100938.25;133730;1301;22323;-78
2023/09/08 08:04:40;;;;;;;14.70;9.60;;;;;;;24.55;58.23;100935.45;133749;1289;22426;-77
2023/09/08 08:07:42;;;;;;;12.10;8.70;;;;;;;24.55;57.45;100933.33;133724;1300;22517;-78
2023/09/08 08:10:43;;;;;;;12.90;9.00;;;;;;;24.66;57.71;100930.64;133757;1301;22372;-77
2023/09/08 08:13:45;;;;;;;10.70;8.40;;;;;;;25.03;56.74;100930.73;133758;1292;22428;-77
2023/09/08 08:16:45;;;;;;;13.50;9.50;;;;;;;25.22;57.17;100931.72;133690;1300;22894;-77
2023/09/08 08:19:51;;;;;;;11.90;8.80;;;;;;;25.58;56.89;100925.44;133754;1301;22460;-77
2023/09/08 08:22:52;;;;;;;11.50;8.60;;;;;;;25.76;56.23;100924.31;133702;1301;22382;-77
2023/09/08 08:25:53;;;;;;;14.50;8.50;;;;;;;25.79;55.32;100924.19;133674;1301;22690;-78
2023/09/08 08:28:53;;;;;;;11.50;8.50;;;;;;;25.79;55.09;100920.23;133709;1289;23987;-77
2023/09/08 08:31:54;;;;;;;12.20;9.10;;;;;;;25.92;54.80;100919.90;133570;1301;22381;-78
2023/09/08 08:34:54;;;;;;;13.80;9.00;;;;;;;25.92;53.99;100921.21;133691;1298;22556;-78
2023/09/08 08:37:58;;;;;;;9.80;8.10;;;;;;;25.89;54.09;100920.91;133715;1301;22533;-79
2023/09/08 08:41:08;;;;;;;9.60;8.30;;;;;;;26.08;53.96;100916.02;133679;1300;23971;-77
2023/09/08 08:44:08;;;;;;;12.30;8.60;;;;;;;26.25;53.02;100910.04;133734;1288;22471;-74
2023/09/08 08:47:10;;;;;;;10.20;8.40;;;;;;;26.34;53.00;100908.68;133623;1300;23092;-79
2023/09/08 08:50:13;;;;;;;12.10;7.90;;;;;;;26.49;53.10;100907.20;133667;1301;22345;-77
2023/09/08 08:53:15;;;;;;;10.60;8.40;;;;;;;26.62;52.33;100909.88;133750;1301;22582;-77
2023/09/08 08:56:18;;;;;;;12.30;9.30;;;;;;;26.51;52.11;100910.55;133682;1301;22530;-79
2023/09/08 08:59:26;;;;;;;9.80;8.30;;;;;;;26.58;52.17;100911.88;133735;1302;22216;-76
2023/09/08 09:02:28;;;;;;;16.10;8.50;;;;;;;26.69;51.40;100911.33;133719;1301;23131;-77
2023/09/08 09:05:29;;;;;;;10.60;7.30;;;;;;;26.64;51.45;100910.17;133735;1301;22241;-76
2023/09/08 09:08:31;;;;;;;12.00;8.40;;;;;;;26.85;51.30;100906.98;133672;1301;22447;-76
2023/09/08 09:11:32;;;;;;;10.90;8.30;;;;;;;26.84;51.12;100905.23;133704;1301;23216;-77
2023/09/08 09:14:33;;;;;;;10.80;7.90;;;;;;;26.78;51.31;100900.75;133637;1301;22359;-77
2023/09/08 09:17:38;;;;;;;8.90;7.70;;;;;;;26.84;50.75;100892.81;133694;1300;22887;-77
2023/09/08 09:20:54;;;;;;;12.10;8.10;;;;;;;26.91;50.78;100890.16;133706;1301;22368;-77
2023/09/08 09:23:57;;;;;;;13.70;7.70;;;;;;;27.30;50.75;100883.46;133705;1300;22878;-76
2023/09/08 09:26:59;;;;;;;13.80;8.40;;;;;;;27.55;50.48;100881.88;133713;1301;22384;-76
2023/09/08 09:29:59;;;;;;;8.80;7.70;;;;;;;27.73;50.24;100881.83;133671;1301;22336;-76
2023/09/08 09:33:04;;;;;;;11.70;7.90;;;;;;;27.79;49.59;100877.14;133701;1301;22254;-77
2023/09/08 09:36:09;;;;;;;10.40;8.30;;;;;;;27.83;48.91;100876.70;133445;1301;23389;-77
2023/09/08 09:39:10;;;;;;;9.00;8.10;;;;;;;27.64;48.38;100870.77;133670;1300;23087;-77
2023/09/08 09:42:11;;;;;;;10.70;7.60;;;;;;;27.58;48.81;100869.25;133711;1301;22494;-77
2023/09/08 09:45:12;;;;;;;9.70;7.70;;;;;;;27.69;48.81;100863.60;133709;1301;22355;-76
2023/09/08 09:48:13;;;;;;;9.00;7.80;;;;;;;27.57;48.67;100866.95;133684;1301;22358;-76
2023/09/08 09:51:20;;;;;;;9.80;8.30;;;;;;;27.42;48.77;100867.33;133697;1300;23120;-77
2023/09/08 09:54:21;;;;;;;9.40;7.60;;;;;;;27.30;48.62;100866.91;133687;1301;22441;-77
2023/09/08 09:57:23;;;;;;;9.00;7.10;;;;;;;27.08;48.70;100865.44;133704;1301;22500;-77
2023/09/08 10:00:26;;;;;;;12.40;8.50;;;;;;;26.93;48.97;100865.13;133702;1301;22570;-77
2023/09/08 10:03:27;;;;;;;9.10;7.50;;;;;;;26.91;49.49;100861.48;133602;1301;22433;-77
2023/09/08 10:06:31;;;;;;;13.80;8.20;;;;;;;27.13;49.53;100856.03;133734;1301;22310;-77
2023/09/08 10:09:31;;;;;;;13.40;8.40;;;;;;;27.27;48.79;100853.80;133708;1301;22253;-77
2023/09/08 10:12:36;;;;;;;10.20;8.00;;;;;;;27.37;48.80;100852.52;133744;1301;22464;-77
2023/09/08 10:15:38;;;;;;;10.70;7.50;;;;;;;27.54;48.32;100849.45;133707;1301;22387;-78
2023/09/08 10:18:42;;;;;;;9.40;7.80;;;;;;;27.69;48.32;100847.09;133746;1300;23078;-76
2023/09/08 10:21:46;;;;;;;9.30;8.10;;;;;;;27.77;48.17;100845.92;133669;1300;23231;-77
2023/09/08 10:24:48;;;;;;;9.30;7.90;;;;;;;27.88;48.03;100845.30;133706;1301;22388;-77
2023/09/08 10:27:49;;;;;;;9.80;7.40;;;;;;;28.10;48.23;100845.86;133556;1299;22445;-77
2023/09/08 10:30:50;;;;;;;9.90;7.70;;;;;;;28.01;47.25;100848.01;133744;1301;22375;-77
2023/09/08 10:33:51;;;;;;;9.10;7.80;;;;;;;27.83;47.36;100848.50;133703;1300;22295;-76
2023/09/08 10:36:52;;;;;;;12.10;7.70;;;;;;;27.86;47.07;100844.33;133686;1301;22471;-78
2023/09/08 10:39:54;;;;;;;8.50;6.40;;;;;;;27.92;47.04;100840.16;133669;1302;22459;-78
2023/09/08 10:43:11;;;;;;;9.90;7.40;;;;;;;28.09;46.73;100835.05;133715;1300;24758;-77
2023/09/08 10:46:22;;;;;;;9.40;7.30;;;;;;;28.31;47.11;100835.59;133581;1301;22390;-78
2023/09/08 10:49:23;;;;;;;11.00;7.10;;;;;;;28.46;45.91;100833.26;133653;1301;22459;-77
2023/09/08 10:52:25;;;;;;;12.40;6.30;;;;;;;28.36;45.87;100833.53;133720;1301;22402;-78
2023/09/08 10:55:36;;;;;;;10.80;7.30;;;;;;;28.31;46.53;100830.11;133639;1301;22740;-77
2023/09/08 10:58:42;;;;;;;8.10;6.20;;;;;;;28.49;46.33;100822.88;133707;1301;22426;-77
2023/09/08 11:01:43;;;;;;;7.60;6.60;;;;;;;28.34;45.14;100822.98;133698;1301;22418;-77
2023/09/08 11:04:44;;;;;;;9.80;6.90;;;;;;;28.14;45.51;100823.63;133649;1301;22238;-77
2023/09/08 11:07:46;;;;;;;9.50;7.00;;;;;;;28.22;44.85;100819.51;133607;1301;22384;-77
2023/09/08 11:10:46;;;;;;;9.50;6.80;;;;;;;28.28;45.35;100816.41;133651;1300;22377;-78
2023/09/08 11:13:50;;;;;;;10.70;6.70;;;;;;;28.58;45.87;100809.20;133631;1300;23393;-77
2023/09/08 11:16:53;;;;;;;7.10;6.30;;;;;;;28.91;44.95;100804.77;133682;1301;23134;-77
2023/09/08 11:19:55;;;;;;;8.50;6.40;;;;;;;28.96;44.00;100803.73;133714;1301;22420;-77
2023/09/08 11:22:55;;;;;;;7.30;5.30;;;;;;;28.88;44.03;100801.64;133680;1301;22372;-78
2023/09/08 11:25:59;;;;;;;7.40;6.30;;;;;;;29.01;43.59;100799.88;133664;1300;23280;-77
2023/09/08 11:29:00;;;;;;;8.30;5.90;;;;;;;28.97;42.73;100798.88;133680;1301;23150;-78
2023/09/08 11:32:03;;;;;;;6.80;6.00;;;;;;;28.85;43.03;100799.52;133720;1301;22363;-77
2023/09/08 11:35:09;;;;;;;7.50;6.00;;;;;;;29.14;43.53;100800.91;133673;1302;22549;-77
2023/09/08 11:38:10;;;;;;;7.10;6.00;;;;;;;29.37;43.74;100795.36;133724;1302;22389;-77
2023/09/08 11:41:14;;;;;;;7.00;5.80;;;;;;;29.60;43.55;100792.60;133704;1300;22362;-77
2023/09/08 11:44:18;;;;;;;8.50;5.40;;;;;;;29.67;42.16;100795.39;133692;1301;22283;-77
2023/09/08 11:47:19;;;;;;;8.70;5.90;;;;;;;29.36;41.51;100798.27;133717;1299;22277;-77
2023/09/08 11:50:20;;;;;;;7.10;5.50;;;;;;;29.11;41.89;100796.83;133550;1302;22447;-78
2023/09/08 11:53:22;;;;;;;7.30;5.30;;;;;;;29.14;42.06;100793.21;133633;1301;23426;-77
2023/09/08 11:56:23;;;;;;;5.80;5.20;;;;;;;29.25;41.73;100788.99;133639;1301;22379;-77
2023/09/08 11:59:24;;;;;;;8.40;5.20;;;;;;;29.25;41.62;100785.50;133651;1296;22367;-77
2023/09/08 12:02:25;;;;;;;6.80;4.80;;;;;;;28.95;41.13;100783.85;133686;1301;23106;-77
2023/09/08 12:05:27;;;;;;;7.80;5.10;;;;;;;28.64;40.55;100783.50;133651;1301;22276;-77
2023/09/08 12:08:28;;;;;;;6.10;5.10;;;;;;;28.65;41.24;100778.48;133654;1301;22429;-77
2023/09/08 12:11:35;;;;;;;7.00;5.30;;;;;;;28.80;40.42;100778.05;133647;1301;22304;-77
2023/09/08 12:14:40;;;;;;;7.90;5.40;;;;;;;28.96;40.25;100774.63;133698;1302;22219;-78
2023/09/08 12:17:50;;;;;;;7.30;4.70;;;;;;;29.13;39.64;100772.66;133674;1301;22550;-79
2023/09/08 12:21:04;;;;;;;9.00;4.80;;;;;;;29.18;39.11;100767.48;133700;1301;22237;-78
2023/09/08 12:24:05;;;;;;;7.10;5.00;;;;;;;29.27;39.37;100763.41;133713;1301;23722;-78
2023/09/08 12:27:06;;;;;;;7.10;5.00;;;;;;;29.43;39.50;100763.88;133709;1302;22291;-77
2023/09/08 12:30:17;;;;;;;6.50;4.60;;;;;;;29.59;39.46;100761.31;133653;1302;22906;-78
2023/09/08 12:33:19;;;;;;;8.50;4.90;;;;;;;29.77;39.66;100762.70;133503;1302;23178;-77
2023/09/08 12:36:20;;;;;;;7.50;5.10;;;;;;;29.96;39.39;100764.33;133624;1302;22368;-77
2023/09/08 12:39:21;;;;;;;7.80;5.50;;;;;;;29.84;38.70;100760.65;133629;1301;23217;-78
2023/09/08 12:42:25;;;;;;;6.40;4.90;;;;;;;29.66;38.65;100764.21;133740;1302;22366;-77
2023/09/08 12:45:27;;;;;;;5.30;4.80;;;;;;;29.27;38.46;100763.80;133685;1302;22387;-77
2023/09/08 12:48:28;;;;;;;6.40;5.00;;;;;;;29.06;39.00;100759.07;133716;1301;23505;-77
2023/09/08 12:51:29;;;;;;;6.50;5.30;;;;;;;29.00;39.31;100758.17;133720;1302;22213;-77
2023/09/08 12:54:33;;;;;;;6.70;4.70;;;;;;;29.04;39.49;100751.13;133689;1305;22423;-78
2023/09/08 12:57:36;;;;;;;6.90;4.70;;;;;;;29.16;38.58;100752.88;133701;1298;22252;-77
2023/09/08 13:00:37;;;;;;;6.50;5.30;;;;;;;29.21;38.29;100749.61;133696;1301;23247;-78
2023/09/08 13:03:38;;;;;;;6.20;5.00;;;;;;;29.20;38.35;100745.12;133701;1301;23551;-79
2023/09/08 13:06:38;;;;;;;6.40;5.00;;;;;;;29.18;38.20;100741.68;133652;1305;22248;-78
2023/09/08 13:09:39;;;;;;;6.00;5.10;;;;;;;29.27;38.63;100739.96;133689;1302;22371;-78
2023/09/08 13:12:42;;;;;;;7.20;5.00;;;;;;;29.40;38.78;100740.77;133718;1305;22211;-78
2023/09/08 13:15:42;;;;;;;7.20;5.10;;;;;;;29.36;37.74;100735.96;133694;1298;22440;-78
2023/09/08 13:18:45;;;;;;;6.00;5.40;;;;;;;29.26;38.33;100735.92;133685;1301;23260;-77
2023/09/08 13:21:45;;;;;;;7.40;5.80;;;;;;;29.07;38.39;100739.23;133683;1302;22453;-77
2023/09/08 13:24:47;;;;;;;7.40;5.10;;;;;;;28.94;38.50;100737.58;133699;1298;22376;-78
2023/09/08 13:27:48;;;;;;;5.40;4.80;;;;;;;28.81;38.49;100733.65;133695;1301;22462;-78
2023/09/08 13:30:49;;;;;;;6.10;5.20;;;;;;;28.87;39.03;100725.07;133675;1301;22363;-78
2023/09/08 13:33:49;;;;;;;12.00;5.50;;;;;;;29.01;39.03;100725.08;133717;1302;23169;-78
2023/09/08 13:36:53;;;;;;;6.70;5.20;;;;;;;29.20;38.69;100723.53;133680;1300;22467;-77
2023/09/08 13:39:53;;;;;;;5.80;4.90;;;;;;;29.20;38.29;100720.69;133728;1298;22510;-78
2023/09/08 13:42:54;;;;;;;6.70;5.10;;;;;;;29.13;38.30;100715.73;133706;1304;22224;-77
2023/09/08 13:46:01;;;;;;;9.60;5.00;;;;;;;29.09;38.44;100711.48;133735;1302;23126;-78
2023/09/08 13:49:02;;;;;;;5.30;4.80;;;;;;;29.04;38.40;100710.65;133747;1298;22402;-75
2023/09/08 13:52:08;;;;;;;10.00;4.80;;;;;;;28.98;38.20;100707.36;133725;1301;22325;-76
2023/09/08 13:55:10;;;;;;;6.20;5.10;;;;;;;28.69;38.04;100704.39;133761;1305;22363;-76